sensor_id;sensor_type;location;lat;lon;timestamp;P1;durP1;ratioP1;P2;durP2;ratioP2
3924;SDS011;1977;52.274;10.518;2023-11-19T00:00:04;2.40;;;2.20;;
3924;SDS011;1977;52.274;10.518;2023-11-19T00:02:36;2.47;;;2.37;;
3924;SDS011;1977;52.274;10.518;2023-11-19T00:05:03;2.50;;;2.40;;
3924;SDS011;1977;52.274;10.518;2023-11-19T00:07:30;2.30;;;2.17;;
3924;SDS011;1977;52.274;10.518;2023-11-19T00:09:58;2.40;;;2.30;;
3924;SDS011;1977;52.274;10.518;2023-11-19T00:12:34;1.83;;;1.73;;
3924;SDS011;1977;52.274;10.518;2023-11-19T00:15:02;2.17;;;2.07;;
3924;SDS011;1977;52.274;10.518;2023-11-19T00:17:28;2.47;;;2.37;;
3924;SDS011;1977;52.274;10.518;2023-11-19T00:19:55;2.70;;;2.57;;
3924;SDS011;1977;52.274;10.518;2023-11-19T00:22:23;2.20;;;2.10;;
3924;SDS011;1977;52.274;10.518;2023-11-19T00:24:51;1.90;;;1.80;;
3924;SDS011;1977;52.274;10.518;2023-11-19T00:27:19;2.00;;;1.90;;
3924;SDS011;1977;52.274;10.518;2023-11-19T00:29:45;1.83;;;1.73;;
3924;SDS011;1977;52.274;10.518;2023-11-19T00:32:12;1.80;;;1.80;;
3924;SDS011;1977;52.274;10.518;2023-11-19T00:34:40;1.80;;;1.70;;
3924;SDS011;1977;52.274;10.518;2023-11-19T00:37:09;1.93;;;1.83;;
3924;SDS011;1977;52.274;10.518;2023-11-19T00:39:36;2.37;;;2.27;;
3924;SDS011;1977;52.274;10.518;2023-11-19T00:42:03;2.10;;;2.00;;
3924;SDS011;1977;52.274;10.518;2023-11-19T00:44:31;1.80;;;1.67;;
3924;SDS011;1977;52.274;10.518;2023-11-19T00:46:58;3.63;;;3.33;;
3924;SDS011;1977;52.274;10.518;2023-11-19T00:49:25;1.67;;;1.57;;
3924;SDS011;1977;52.274;10.518;2023-11-19T00:51:52;1.80;;;1.70;;
3924;SDS011;1977;52.274;10.518;2023-11-19T00:54:19;1.97;;;1.90;;
3924;SDS011;1977;52.274;10.518;2023-11-19T00:56:46;2.00;;;1.90;;
3924;SDS011;1977;52.274;10.518;2023-11-19T00:59:12;2.00;;;1.90;;
3924;SDS011;1977;52.274;10.518;2023-11-19T01:01:41;1.77;;;1.70;;
3924;SDS011;1977;52.274;10.518;2023-11-19T01:04:08;2.00;;;1.90;;
3924;SDS011;1977;52.274;10.518;2023-11-19T01:06:35;2.03;;;1.93;;
3924;SDS011;1977;52.274;10.518;2023-11-19T01:09:02;2.20;;;2.10;;
3924;SDS011;1977;52.274;10.518;2023-11-19T01:11:29;1.83;;;1.73;;
3924;SDS011;1977;52.274;10.518;2023-11-19T01:13:56;2.33;;;2.23;;
3924;SDS011;1977;52.274;10.518;2023-11-19T01:16:22;1.87;;;1.77;;
3924;SDS011;1977;52.274;10.518;2023-11-19T01:18:50;2.33;;;2.23;;
3924;SDS011;1977;52.274;10.518;2023-11-19T01:21:17;2.40;;;2.30;;
3924;SDS011;1977;52.274;10.518;2023-11-19T01:23:45;2.27;;;2.07;;
3924;SDS011;1977;52.274;10.518;2023-11-19T01:26:12;1.83;;;1.73;;
3924;SDS011;1977;52.274;10.518;2023-11-19T01:28:39;1.90;;;1.80;;
3924;SDS011;1977;52.274;10.518;2023-11-19T01:31:10;1.60;;;1.60;;
3924;SDS011;1977;52.274;10.518;2023-11-19T01:33:37;1.60;;;1.50;;
3924;SDS011;1977;52.274;10.518;2023-11-19T01:36:06;1.80;;;1.70;;
3924;SDS011;1977;52.274;10.518;2023-11-19T01:38:34;1.50;;;1.50;;
3924;SDS011;1977;52.274;10.518;2023-11-19T01:41:02;1.47;;;1.47;;
3924;SDS011;1977;52.274;10.518;2023-11-19T01:43:32;1.50;;;1.50;;
3924;SDS011;1977;52.274;10.518;2023-11-19T01:46:00;1.83;;;1.83;;
3924;SDS011;1977;52.274;10.518;2023-11-19T01:48:27;1.87;;;1.77;;
3924;SDS011;1977;52.274;10.518;2023-11-19T01:50:54;2.00;;;1.90;;
3924;SDS011;1977;52.274;10.518;2023-11-19T01:53:23;2.03;;;1.93;;
3924;SDS011;1977;52.274;10.518;2023-11-19T01:55:50;2.00;;;1.90;;
3924;SDS011;1977;52.274;10.518;2023-11-19T01:58:18;1.93;;;1.83;;
3924;SDS011;1977;52.274;10.518;2023-11-19T02:00:45;1.80;;;1.80;;
3924;SDS011;1977;52.274;10.518;2023-11-19T02:03:12;1.97;;;1.87;;
3924;SDS011;1977;52.274;10.518;2023-11-19T02:05:41;1.90;;;1.80;;
3924;SDS011;1977;52.274;10.518;2023-11-19T02:08:08;2.27;;;2.17;;
3924;SDS011;1977;52.274;10.518;2023-11-19T02:10:36;2.13;;;2.00;;
3924;SDS011;1977;52.274;10.518;2023-11-19T02:13:03;1.90;;;1.80;;
3924;SDS011;1977;52.274;10.518;2023-11-19T02:15:31;2.20;;;2.00;;
3924;SDS011;1977;52.274;10.518;2023-11-19T02:20:47;2.93;;;2.73;;
3924;SDS011;1977;52.274;10.518;2023-11-19T02:23:14;2.63;;;2.40;;
3924;SDS011;1977;52.274;10.518;2023-11-19T02:25:42;3.10;;;2.90;;
3924;SDS011;1977;52.274;10.518;2023-11-19T02:28:16;2.60;;;2.50;;
3924;SDS011;1977;52.274;10.518;2023-11-19T02:30:43;3.00;;;2.80;;
3924;SDS011;1977;52.274;10.518;2023-11-19T02:33:10;2.40;;;2.30;;
3924;SDS011;1977;52.274;10.518;2023-11-19T02:35:37;1.90;;;1.80;;
3924;SDS011;1977;52.274;10.518;2023-11-19T02:38:05;1.77;;;1.67;;
3924;SDS011;1977;52.274;10.518;2023-11-19T02:40:33;1.57;;;1.47;;
3924;SDS011;1977;52.274;10.518;2023-11-19T02:43:00;1.47;;;1.47;;
3924;SDS011;1977;52.274;10.518;2023-11-19T02:45:31;1.43;;;1.40;;
3924;SDS011;1977;52.274;10.518;2023-11-19T02:47:58;1.23;;;1.23;;
3924;SDS011;1977;52.274;10.518;2023-11-19T02:50:26;1.50;;;1.50;;
3924;SDS011;1977;52.274;10.518;2023-11-19T02:52:54;1.57;;;1.57;;
3924;SDS011;1977;52.274;10.518;2023-11-19T02:55:22;1.10;;;1.10;;
3924;SDS011;1977;52.274;10.518;2023-11-19T02:57:49;1.50;;;1.40;;
3924;SDS011;1977;52.274;10.518;2023-11-19T03:00:18;1.40;;;1.40;;
3924;SDS011;1977;52.274;10.518;2023-11-19T03:02:50;1.30;;;1.30;;
3924;SDS011;1977;52.274;10.518;2023-11-19T03:05:24;1.30;;;1.30;;
3924;SDS011;1977;52.274;10.518;2023-11-19T03:07:51;1.47;;;1.47;;
3924;SDS011;1977;52.274;10.518;2023-11-19T03:10:18;1.17;;;1.17;;
3924;SDS011;1977;52.274;10.518;2023-11-19T03:12:45;1.33;;;1.30;;
3924;SDS011;1977;52.274;10.518;2023-11-19T03:15:12;1.13;;;1.13;;
3924;SDS011;1977;52.274;10.518;2023-11-19T03:17:39;1.20;;;1.20;;
3924;SDS011;1977;52.274;10.518;2023-11-19T03:20:08;1.30;;;1.30;;
3924;SDS011;1977;52.274;10.518;2023-11-19T03:22:39;1.30;;;1.30;;
3924;SDS011;1977;52.274;10.518;2023-11-19T03:25:06;1.40;;;1.30;;
3924;SDS011;1977;52.274;10.518;2023-11-19T03:27:34;1.23;;;1.23;;
3924;SDS011;1977;52.274;10.518;2023-11-19T03:30:01;1.20;;;1.20;;
3924;SDS011;1977;52.274;10.518;2023-11-19T03:32:29;1.20;;;1.20;;
3924;SDS011;1977;52.274;10.518;2023-11-19T03:34:57;1.43;;;1.20;;
3924;SDS011;1977;52.274;10.518;2023-11-19T03:37:25;2.70;;;1.60;;
3924;SDS011;1977;52.274;10.518;2023-11-19T03:39:53;1.30;;;1.30;;
3924;SDS011;1977;52.274;10.518;2023-11-19T03:42:19;1.20;;;1.20;;
3924;SDS011;1977;52.274;10.518;2023-11-19T03:44:47;1.30;;;1.30;;
3924;SDS011;1977;52.274;10.518;2023-11-19T03:47:14;1.40;;;1.40;;
3924;SDS011;1977;52.274;10.518;2023-11-19T03:49:41;1.43;;;1.43;;
3924;SDS011;1977;52.274;10.518;2023-11-19T03:52:09;1.57;;;1.50;;
3924;SDS011;1977;52.274;10.518;2023-11-19T03:54:37;1.40;;;1.30;;
3924;SDS011;1977;52.274;10.518;2023-11-19T03:57:04;1.50;;;1.50;;
3924;SDS011;1977;52.274;10.518;2023-11-19T03:59:30;1.63;;;1.53;;
3924;SDS011;1977;52.274;10.518;2023-11-19T04:01:58;1.40;;;1.30;;
3924;SDS011;1977;52.274;10.518;2023-11-19T04:04:25;1.50;;;1.50;;
3924;SDS011;1977;52.274;10.518;2023-11-19T04:06:52;1.50;;;1.50;;
3924;SDS011;1977;52.274;10.518;2023-11-19T04:09:19;1.30;;;1.30;;
3924;SDS011;1977;52.274;10.518;2023-11-19T04:11:47;1.20;;;1.20;;
3924;SDS011;1977;52.274;10.518;2023-11-19T04:14:14;1.50;;;1.40;;
3924;SDS011;1977;52.274;10.518;2023-11-19T04:16:43;1.33;;;1.33;;
3924;SDS011;1977;52.274;10.518;2023-11-19T04:19:10;1.60;;;1.50;;
3924;SDS011;1977;52.274;10.518;2023-11-19T04:21:37;1.40;;;1.40;;
3924;SDS011;1977;52.274;10.518;2023-11-19T04:24:06;1.60;;;1.50;;
3924;SDS011;1977;52.274;10.518;2023-11-19T04:26:33;1.20;;;1.20;;
3924;SDS011;1977;52.274;10.518;2023-11-19T04:29:03;1.30;;;1.20;;
3924;SDS011;1977;52.274;10.518;2023-11-19T04:31:31;1.50;;;1.50;;
3924;SDS011;1977;52.274;10.518;2023-11-19T04:33:57;1.47;;;1.47;;
3924;SDS011;1977;52.274;10.518;2023-11-19T04:36:25;1.70;;;1.50;;
3924;SDS011;1977;52.274;10.518;2023-11-19T04:38:52;1.80;;;1.70;;
3924;SDS011;1977;52.274;10.518;2023-11-19T04:41:19;1.67;;;1.57;;
3924;SDS011;1977;52.274;10.518;2023-11-19T04:43:45;1.73;;;1.63;;
3924;SDS011;1977;52.274;10.518;2023-11-19T04:46:14;1.80;;;1.70;;
3924;SDS011;1977;52.274;10.518;2023-11-19T04:48:40;2.03;;;1.93;;
3924;SDS011;1977;52.274;10.518;2023-11-19T04:51:07;1.97;;;1.87;;
3924;SDS011;1977;52.274;10.518;2023-11-19T04:53:35;1.83;;;1.73;;
3924;SDS011;1977;52.274;10.518;2023-11-19T04:56:07;2.30;;;2.20;;
3924;SDS011;1977;52.274;10.518;2023-11-19T04:58:34;3.33;;;2.57;;
3924;SDS011;1977;52.274;10.518;2023-11-19T05:01:00;2.23;;;2.13;;
3924;SDS011;1977;52.274;10.518;2023-11-19T05:03:30;2.00;;;1.80;;
3924;SDS011;1977;52.274;10.518;2023-11-19T05:05:57;2.30;;;2.10;;
3924;SDS011;1977;52.274;10.518;2023-11-19T05:08:24;3.47;;;2.10;;
3924;SDS011;1977;52.274;10.518;2023-11-19T05:10:51;2.20;;;2.10;;
3924;SDS011;1977;52.274;10.518;2023-11-19T05:13:18;3.10;;;2.90;;
3924;SDS011;1977;52.274;10.518;2023-11-19T05:15:44;2.50;;;2.40;;
3924;SDS011;1977;52.274;10.518;2023-11-19T05:18:11;2.80;;;2.60;;
3924;SDS011;1977;52.274;10.518;2023-11-19T05:20:39;2.33;;;2.13;;
3924;SDS011;1977;52.274;10.518;2023-11-19T05:23:06;4.70;;;2.53;;
3924;SDS011;1977;52.274;10.518;2023-11-19T05:25:33;2.60;;;2.50;;
3924;SDS011;1977;52.274;10.518;2023-11-19T05:28:00;2.77;;;2.57;;
3924;SDS011;1977;52.274;10.518;2023-11-19T05:30:26;2.83;;;2.63;;
3924;SDS011;1977;52.274;10.518;2023-11-19T05:32:53;2.60;;;2.40;;
3924;SDS011;1977;52.274;10.518;2023-11-19T05:35:20;3.00;;;2.80;;
3924;SDS011;1977;52.274;10.518;2023-11-19T05:37:48;2.80;;;2.70;;
3924;SDS011;1977;52.274;10.518;2023-11-19T05:40:15;4.30;;;2.43;;
3924;SDS011;1977;52.274;10.518;2023-11-19T05:42:42;2.70;;;2.57;;
3924;SDS011;1977;52.274;10.518;2023-11-19T05:45:10;2.63;;;2.43;;
3924;SDS011;1977;52.274;10.518;2023-11-19T05:47:38;2.13;;;2.03;;
3924;SDS011;1977;52.274;10.518;2023-11-19T05:50:05;2.97;;;2.37;;
3924;SDS011;1977;52.274;10.518;2023-11-19T05:52:33;2.40;;;2.30;;
3924;SDS011;1977;52.274;10.518;2023-11-19T05:55:01;2.37;;;2.27;;
3924;SDS011;1977;52.274;10.518;2023-11-19T05:57:34;2.63;;;2.43;;
3924;SDS011;1977;52.274;10.518;2023-11-19T06:00:01;2.47;;;2.37;;
3924;SDS011;1977;52.274;10.518;2023-11-19T06:02:28;2.47;;;2.37;;
3924;SDS011;1977;52.274;10.518;2023-11-19T06:04:55;2.20;;;2.10;;
3924;SDS011;1977;52.274;10.518;2023-11-19T06:07:22;2.20;;;2.10;;
3924;SDS011;1977;52.274;10.518;2023-11-19T06:09:49;2.77;;;2.57;;
3924;SDS011;1977;52.274;10.518;2023-11-19T06:12:17;2.30;;;2.20;;
3924;SDS011;1977;52.274;10.518;2023-11-19T06:14:43;2.80;;;2.60;;
3924;SDS011;1977;52.274;10.518;2023-11-19T06:17:10;2.13;;;2.03;;
3924;SDS011;1977;52.274;10.518;2023-11-19T06:19:37;2.90;;;2.50;;
3924;SDS011;1977;52.274;10.518;2023-11-19T06:22:04;2.70;;;2.50;;
3924;SDS011;1977;52.274;10.518;2023-11-19T06:24:31;4.33;;;2.97;;
3924;SDS011;1977;52.274;10.518;2023-11-19T06:26:58;3.00;;;2.80;;
3924;SDS011;1977;52.274;10.518;2023-11-19T06:29:26;3.23;;;2.87;;
3924;SDS011;1977;52.274;10.518;2023-11-19T06:31:53;2.97;;;2.77;;
3924;SDS011;1977;52.274;10.518;2023-11-19T06:34:20;4.80;;;2.93;;
3924;SDS011;1977;52.274;10.518;2023-11-19T06:36:46;2.80;;;2.70;;
3924;SDS011;1977;52.274;10.518;2023-11-19T06:39:13;3.40;;;3.10;;
3924;SDS011;1977;52.274;10.518;2023-11-19T06:41:44;3.07;;;2.87;;
3924;SDS011;1977;52.274;10.518;2023-11-19T06:44:11;3.53;;;2.97;;
3924;SDS011;1977;52.274;10.518;2023-11-19T06:46:39;3.77;;;3.47;;
3924;SDS011;1977;52.274;10.518;2023-11-19T06:49:06;5.93;;;3.30;;
3924;SDS011;1977;52.274;10.518;2023-11-19T06:51:33;3.07;;;2.90;;
3924;SDS011;1977;52.274;10.518;2023-11-19T06:54:00;4.60;;;3.30;;
3924;SDS011;1977;52.274;10.518;2023-11-19T06:56:27;5.73;;;3.73;;
3924;SDS011;1977;52.274;10.518;2023-11-19T06:58:53;3.43;;;3.13;;
3924;SDS011;1977;52.274;10.518;2023-11-19T07:01:20;5.27;;;3.93;;
3924;SDS011;1977;52.274;10.518;2023-11-19T07:03:48;4.53;;;3.17;;
3924;SDS011;1977;52.274;10.518;2023-11-19T07:06:16;3.60;;;3.30;;
3924;SDS011;1977;52.274;10.518;2023-11-19T07:08:43;5.90;;;3.50;;
3924;SDS011;1977;52.274;10.518;2023-11-19T07:11:10;3.30;;;3.00;;
3924;SDS011;1977;52.274;10.518;2023-11-19T07:13:38;3.87;;;3.30;;
3924;SDS011;1977;52.274;10.518;2023-11-19T07:16:06;4.33;;;4.03;;
3924;SDS011;1977;52.274;10.518;2023-11-19T07:18:34;5.00;;;4.00;;
3924;SDS011;1977;52.274;10.518;2023-11-19T07:21:03;3.60;;;3.23;;
3924;SDS011;1977;52.274;10.518;2023-11-19T07:23:30;5.37;;;3.00;;
3924;SDS011;1977;52.274;10.518;2023-11-19T07:25:59;4.47;;;3.40;;
3924;SDS011;1977;52.274;10.518;2023-11-19T07:28:26;4.90;;;3.17;;
3924;SDS011;1977;52.274;10.518;2023-11-19T07:30:53;3.90;;;3.40;;
3924;SDS011;1977;52.274;10.518;2023-11-19T07:33:21;3.43;;;3.10;;
3924;SDS011;1977;52.274;10.518;2023-11-19T07:35:47;4.67;;;3.27;;
3924;SDS011;1977;52.274;10.518;2023-11-19T07:38:16;3.60;;;3.30;;
3924;SDS011;1977;52.274;10.518;2023-11-19T07:40:43;5.93;;;3.73;;
3924;SDS011;1977;52.274;10.518;2023-11-19T07:43:09;6.40;;;3.70;;
3924;SDS011;1977;52.274;10.518;2023-11-19T07:45:36;3.27;;;3.00;;
3924;SDS011;1977;52.274;10.518;2023-11-19T07:48:03;6.60;;;3.70;;
3924;SDS011;1977;52.274;10.518;2023-11-19T07:50:31;5.67;;;4.00;;
3924;SDS011;1977;52.274;10.518;2023-11-19T07:52:58;4.60;;;3.93;;
3924;SDS011;1977;52.274;10.518;2023-11-19T07:55:26;4.47;;;3.70;;
3924;SDS011;1977;52.274;10.518;2023-11-19T07:57:53;4.20;;;3.80;;
3924;SDS011;1977;52.274;10.518;2023-11-19T08:00:20;7.77;;;4.57;;
3924;SDS011;1977;52.274;10.518;2023-11-19T08:02:47;5.60;;;4.47;;
3924;SDS011;1977;52.274;10.518;2023-11-19T08:05:14;9.40;;;4.23;;
3924;SDS011;1977;52.274;10.518;2023-11-19T08:07:41;8.37;;;4.53;;
3924;SDS011;1977;52.274;10.518;2023-11-19T08:10:08;9.00;;;5.37;;
3924;SDS011;1977;52.274;10.518;2023-11-19T08:12:37;8.13;;;4.20;;
3924;SDS011;1977;52.274;10.518;2023-11-19T08:15:04;12.67;;;5.17;;
3924;SDS011;1977;52.274;10.518;2023-11-19T08:17:32;7.77;;;5.37;;
3924;SDS011;1977;52.274;10.518;2023-11-19T08:19:58;12.53;;;6.50;;
3924;SDS011;1977;52.274;10.518;2023-11-19T08:22:26;16.30;;;6.77;;
3924;SDS011;1977;52.274;10.518;2023-11-19T08:24:53;14.63;;;6.73;;
3924;SDS011;1977;52.274;10.518;2023-11-19T08:27:19;9.60;;;6.30;;
3924;SDS011;1977;52.274;10.518;2023-11-19T08:29:53;8.70;;;5.93;;
3924;SDS011;1977;52.274;10.518;2023-11-19T08:32:20;10.57;;;6.30;;
3924;SDS011;1977;52.274;10.518;2023-11-19T08:34:47;11.13;;;6.00;;
3924;SDS011;1977;52.274;10.518;2023-11-19T08:37:14;11.90;;;6.67;;
3924;SDS011;1977;52.274;10.518;2023-11-19T08:39:43;12.60;;;8.23;;
3924;SDS011;1977;52.274;10.518;2023-11-19T08:42:09;20.03;;;9.03;;
3924;SDS011;1977;52.274;10.518;2023-11-19T08:44:36;11.43;;;6.23;;
3924;SDS011;1977;52.274;10.518;2023-11-19T08:47:04;13.93;;;5.40;;
3924;SDS011;1977;52.274;10.518;2023-11-19T08:49:31;7.33;;;5.10;;
3924;SDS011;1977;52.274;10.518;2023-11-19T08:51:58;12.13;;;5.40;;
3924;SDS011;1977;52.274;10.518;2023-11-19T08:54:25;14.57;;;6.10;;
3924;SDS011;1977;52.274;10.518;2023-11-19T08:56:52;22.33;;;8.43;;
3924;SDS011;1977;52.274;10.518;2023-11-19T08:59:18;9.70;;;6.40;;
3924;SDS011;1977;52.274;10.518;2023-11-19T09:01:45;15.40;;;9.10;;
3924;SDS011;1977;52.274;10.518;2023-11-19T09:04:13;7.47;;;5.23;;
3924;SDS011;1977;52.274;10.518;2023-11-19T09:06:41;15.17;;;8.97;;
3924;SDS011;1977;52.274;10.518;2023-11-19T09:09:09;9.87;;;6.10;;
3924;SDS011;1977;52.274;10.518;2023-11-19T09:11:35;22.13;;;10.20;;
3924;SDS011;1977;52.274;10.518;2023-11-19T09:14:03;15.10;;;6.80;;
3924;SDS011;1977;52.274;10.518;2023-11-19T09:16:30;13.30;;;7.23;;
3924;SDS011;1977;52.274;10.518;2023-11-19T09:18:57;15.53;;;8.13;;
3924;SDS011;1977;52.274;10.518;2023-11-19T09:21:25;16.57;;;9.93;;
3924;SDS011;1977;52.274;10.518;2023-11-19T09:23:52;12.20;;;6.83;;
3924;SDS011;1977;52.274;10.518;2023-11-19T09:26:19;11.10;;;5.67;;
3924;SDS011;1977;52.274;10.518;2023-11-19T09:28:46;18.57;;;6.27;;
3924;SDS011;1977;52.274;10.518;2023-11-19T09:31:13;18.37;;;7.27;;
3924;SDS011;1977;52.274;10.518;2023-11-19T09:33:40;17.20;;;10.20;;
3924;SDS011;1977;52.274;10.518;2023-11-19T09:36:07;10.70;;;6.33;;
3924;SDS011;1977;52.274;10.518;2023-11-19T09:38:35;13.10;;;5.70;;
3924;SDS011;1977;52.274;10.518;2023-11-19T09:41:03;18.60;;;7.47;;
3924;SDS011;1977;52.274;10.518;2023-11-19T09:43:33;15.37;;;6.00;;
3924;SDS011;1977;52.274;10.518;2023-11-19T09:46:01;20.20;;;9.33;;
3924;SDS011;1977;52.274;10.518;2023-11-19T09:48:32;17.23;;;6.77;;
3924;SDS011;1977;52.274;10.518;2023-11-19T09:50:59;15.17;;;6.10;;
3924;SDS011;1977;52.274;10.518;2023-11-19T09:53:27;15.40;;;5.47;;
3924;SDS011;1977;52.274;10.518;2023-11-19T09:55:55;17.93;;;6.70;;
3924;SDS011;1977;52.274;10.518;2023-11-19T09:58:22;19.70;;;6.77;;
3924;SDS011;1977;52.274;10.518;2023-11-19T10:00:49;16.93;;;7.30;;
3924;SDS011;1977;52.274;10.518;2023-11-19T10:03:17;7.83;;;5.23;;
3924;SDS011;1977;52.274;10.518;2023-11-19T10:05:44;14.63;;;5.80;;
3924;SDS011;1977;52.274;10.518;2023-11-19T10:08:10;14.77;;;6.40;;
3924;SDS011;1977;52.274;10.518;2023-11-19T10:10:38;19.43;;;6.43;;
3924;SDS011;1977;52.274;10.518;2023-11-19T10:13:06;12.13;;;5.70;;
3924;SDS011;1977;52.274;10.518;2023-11-19T10:15:35;14.63;;;6.17;;
3924;SDS011;1977;52.274;10.518;2023-11-19T10:18:03;14.47;;;6.27;;
3924;SDS011;1977;52.274;10.518;2023-11-19T10:20:34;12.23;;;4.70;;
3924;SDS011;1977;52.274;10.518;2023-11-19T10:23:01;16.47;;;6.63;;
3924;SDS011;1977;52.274;10.518;2023-11-19T10:25:29;12.60;;;4.93;;
3924;SDS011;1977;52.274;10.518;2023-11-19T10:27:56;10.33;;;5.47;;
3924;SDS011;1977;52.274;10.518;2023-11-19T10:30:25;8.80;;;5.03;;
3924;SDS011;1977;52.274;10.518;2023-11-19T10:33:02;14.63;;;4.67;;
3924;SDS011;1977;52.274;10.518;2023-11-19T10:35:31;13.17;;;4.87;;
3924;SDS011;1977;52.274;10.518;2023-11-19T10:37:58;20.60;;;7.83;;
3924;SDS011;1977;52.274;10.518;2023-11-19T10:40:37;13.57;;;5.50;;
3924;SDS011;1977;52.274;10.518;2023-11-19T10:43:04;16.70;;;5.47;;
3924;SDS011;1977;52.274;10.518;2023-11-19T10:45:34;10.27;;;5.37;;
3924;SDS011;1977;52.274;10.518;2023-11-19T10:48:00;18.07;;;5.80;;
3924;SDS011;1977;52.274;10.518;2023-11-19T10:50:29;9.00;;;4.80;;
3924;SDS011;1977;52.274;10.518;2023-11-19T10:52:56;11.90;;;4.97;;
3924;SDS011;1977;52.274;10.518;2023-11-19T10:55:26;18.50;;;5.40;;
3924;SDS011;1977;52.274;10.518;2023-11-19T10:57:54;14.57;;;5.60;;
3924;SDS011;1977;52.274;10.518;2023-11-19T11:00:26;12.40;;;5.00;;
3924;SDS011;1977;52.274;10.518;2023-11-19T11:02:56;11.47;;;5.43;;
3924;SDS011;1977;52.274;10.518;2023-11-19T11:05:26;13.83;;;4.47;;
3924;SDS011;1977;52.274;10.518;2023-11-19T11:07:55;11.70;;;5.03;;
3924;SDS011;1977;52.274;10.518;2023-11-19T11:10:23;17.83;;;5.40;;
3924;SDS011;1977;52.274;10.518;2023-11-19T11:12:52;8.67;;;4.93;;
3924;SDS011;1977;52.274;10.518;2023-11-19T11:15:23;16.93;;;4.50;;
3924;SDS011;1977;52.274;10.518;2023-11-19T11:17:52;14.73;;;5.10;;
3924;SDS011;1977;52.274;10.518;2023-11-19T11:20:27;8.10;;;4.20;;
3924;SDS011;1977;52.274;10.518;2023-11-19T11:22:58;18.83;;;6.77;;
3924;SDS011;1977;52.274;10.518;2023-11-19T11:25:38;10.03;;;5.67;;
3924;SDS011;1977;52.274;10.518;2023-11-19T11:28:20;12.10;;;3.93;;
3924;SDS011;1977;52.274;10.518;2023-11-19T11:30:55;7.97;;;4.50;;
3924;SDS011;1977;52.274;10.518;2023-11-19T11:33:39;8.03;;;4.20;;
3924;SDS011;1977;52.274;10.518;2023-11-19T11:36:20;8.03;;;4.20;;
3924;SDS011;1977;52.274;10.518;2023-11-19T11:38:49;19.37;;;5.27;;
3924;SDS011;1977;52.274;10.518;2023-11-19T11:41:17;9.27;;;4.60;;
3924;SDS011;1977;52.274;10.518;2023-11-19T11:43:48;11.90;;;4.93;;
3924;SDS011;1977;52.274;10.518;2023-11-19T11:49:27;12.50;;;5.00;;
3924;SDS011;1977;52.274;10.518;2023-11-19T11:51:59;9.00;;;5.00;;
3924;SDS011;1977;52.274;10.518;2023-11-19T11:54:28;8.73;;;5.23;;
3924;SDS011;1977;52.274;10.518;2023-11-19T11:57:02;11.20;;;6.40;;
3924;SDS011;1977;52.274;10.518;2023-11-19T11:59:36;12.63;;;7.07;;
3924;SDS011;1977;52.274;10.518;2023-11-19T12:02:08;14.53;;;6.00;;
3924;SDS011;1977;52.274;10.518;2023-11-19T12:04:38;13.17;;;5.43;;
3924;SDS011;1977;52.274;10.518;2023-11-19T12:07:06;9.37;;;5.37;;
3924;SDS011;1977;52.274;10.518;2023-11-19T12:09:33;13.20;;;5.73;;
3924;SDS011;1977;52.274;10.518;2023-11-19T12:12:17;13.80;;;6.33;;
3924;SDS011;1977;52.274;10.518;2023-11-19T12:17:46;12.93;;;6.13;;
3924;SDS011;1977;52.274;10.518;2023-11-19T12:20:18;14.70;;;6.07;;
3924;SDS011;1977;52.274;10.518;2023-11-19T12:22:46;11.23;;;5.63;;
3924;SDS011;1977;52.274;10.518;2023-11-19T12:25:14;19.23;;;5.70;;
3924;SDS011;1977;52.274;10.518;2023-11-19T12:27:43;14.87;;;6.00;;
3924;SDS011;1977;52.274;10.518;2023-11-19T12:30:11;13.83;;;6.50;;
3924;SDS011;1977;52.274;10.518;2023-11-19T12:32:39;13.83;;;6.20;;
3924;SDS011;1977;52.274;10.518;2023-11-19T12:35:07;14.03;;;5.53;;
3924;SDS011;1977;52.274;10.518;2023-11-19T12:37:41;17.73;;;5.90;;
3924;SDS011;1977;52.274;10.518;2023-11-19T12:40:12;15.40;;;5.90;;
3924;SDS011;1977;52.274;10.518;2023-11-19T12:42:43;15.43;;;6.27;;
3924;SDS011;1977;52.274;10.518;2023-11-19T12:45:10;13.77;;;5.80;;
3924;SDS011;1977;52.274;10.518;2023-11-19T12:47:37;14.73;;;5.90;;
3924;SDS011;1977;52.274;10.518;2023-11-19T12:50:04;20.00;;;5.50;;
3924;SDS011;1977;52.274;10.518;2023-11-19T12:52:33;16.60;;;5.93;;
3924;SDS011;1977;52.274;10.518;2023-11-19T12:55:01;16.83;;;5.70;;
3924;SDS011;1977;52.274;10.518;2023-11-19T12:57:38;15.33;;;5.97;;
3924;SDS011;1977;52.274;10.518;2023-11-19T13:00:06;13.40;;;5.67;;
3924;SDS011;1977;52.274;10.518;2023-11-19T13:02:46;17.60;;;6.20;;
3924;SDS011;1977;52.274;10.518;2023-11-19T13:05:23;12.53;;;5.77;;
3924;SDS011;1977;52.274;10.518;2023-11-19T13:07:57;11.40;;;5.80;;
3924;SDS011;1977;52.274;10.518;2023-11-19T13:10:27;12.07;;;5.60;;
3924;SDS011;1977;52.274;10.518;2023-11-19T13:13:04;24.60;;;6.70;;
3924;SDS011;1977;52.274;10.518;2023-11-19T13:15:33;12.07;;;5.23;;
3924;SDS011;1977;52.274;10.518;2023-11-19T13:18:01;16.43;;;6.43;;
3924;SDS011;1977;52.274;10.518;2023-11-19T13:20:28;13.10;;;5.00;;
3924;SDS011;1977;52.274;10.518;2023-11-19T13:22:57;12.60;;;5.90;;
3924;SDS011;1977;52.274;10.518;2023-11-19T13:25:24;14.00;;;6.77;;
3924;SDS011;1977;52.274;10.518;2023-11-19T13:27:53;12.50;;;5.37;;
3924;SDS011;1977;52.274;10.518;2023-11-19T13:30:20;12.03;;;5.63;;
3924;SDS011;1977;52.274;10.518;2023-11-19T13:32:48;11.17;;;6.10;;
3924;SDS011;1977;52.274;10.518;2023-11-19T13:35:15;11.90;;;5.50;;
3924;SDS011;1977;52.274;10.518;2023-11-19T13:37:43;14.50;;;5.90;;
3924;SDS011;1977;52.274;10.518;2023-11-19T13:40:10;14.07;;;6.23;;
3924;SDS011;1977;52.274;10.518;2023-11-19T13:42:41;13.20;;;6.50;;
3924;SDS011;1977;52.274;10.518;2023-11-19T13:45:08;25.60;;;6.63;;
3924;SDS011;1977;52.274;10.518;2023-11-19T13:47:38;11.73;;;5.70;;
3924;SDS011;1977;52.274;10.518;2023-11-19T13:50:07;12.10;;;5.50;;
3924;SDS011;1977;52.274;10.518;2023-11-19T13:52:44;11.23;;;5.10;;
3924;SDS011;1977;52.274;10.518;2023-11-19T13:55:12;11.17;;;5.40;;
3924;SDS011;1977;52.274;10.518;2023-11-19T13:57:41;14.97;;;5.53;;
3924;SDS011;1977;52.274;10.518;2023-11-19T14:00:09;17.20;;;5.70;;
3924;SDS011;1977;52.274;10.518;2023-11-19T14:02:37;14.70;;;7.90;;
3924;SDS011;1977;52.274;10.518;2023-11-19T14:05:05;14.40;;;6.67;;
3924;SDS011;1977;52.274;10.518;2023-11-19T14:07:32;11.67;;;5.63;;
3924;SDS011;1977;52.274;10.518;2023-11-19T14:09:59;10.03;;;5.50;;
3924;SDS011;1977;52.274;10.518;2023-11-19T14:12:26;12.03;;;6.17;;
3924;SDS011;1977;52.274;10.518;2023-11-19T14:14:54;14.27;;;6.53;;
3924;SDS011;1977;52.274;10.518;2023-11-19T14:17:21;13.03;;;6.23;;
3924;SDS011;1977;52.274;10.518;2023-11-19T14:19:47;16.07;;;6.03;;
3924;SDS011;1977;52.274;10.518;2023-11-19T14:22:14;10.57;;;5.23;;
3924;SDS011;1977;52.274;10.518;2023-11-19T14:24:41;13.27;;;6.40;;
3924;SDS011;1977;52.274;10.518;2023-11-19T14:27:08;16.63;;;6.13;;
3924;SDS011;1977;52.274;10.518;2023-11-19T14:29:34;9.00;;;5.33;;
3924;SDS011;1977;52.274;10.518;2023-11-19T14:32:03;14.67;;;6.37;;
3924;SDS011;1977;52.274;10.518;2023-11-19T14:34:31;14.93;;;6.90;;
3924;SDS011;1977;52.274;10.518;2023-11-19T14:36:58;10.90;;;5.53;;
3924;SDS011;1977;52.274;10.518;2023-11-19T14:39:26;14.93;;;6.37;;
3924;SDS011;1977;52.274;10.518;2023-11-19T14:41:54;15.27;;;7.03;;
3924;SDS011;1977;52.274;10.518;2023-11-19T14:44:23;17.50;;;6.47;;
3924;SDS011;1977;52.274;10.518;2023-11-19T14:46:50;16.30;;;6.50;;
3924;SDS011;1977;52.274;10.518;2023-11-19T14:49:18;21.93;;;6.33;;
3924;SDS011;1977;52.274;10.518;2023-11-19T14:51:44;9.80;;;5.80;;
3924;SDS011;1977;52.274;10.518;2023-11-19T14:54:11;12.80;;;6.60;;
3924;SDS011;1977;52.274;10.518;2023-11-19T14:56:39;17.67;;;6.93;;
3924;SDS011;1977;52.274;10.518;2023-11-19T14:59:06;11.90;;;7.60;;
3924;SDS011;1977;52.274;10.518;2023-11-19T15:01:33;11.83;;;7.00;;
3924;SDS011;1977;52.274;10.518;2023-11-19T15:04:00;20.80;;;6.40;;
3924;SDS011;1977;52.274;10.518;2023-11-19T15:06:28;10.10;;;6.53;;
3924;SDS011;1977;52.274;10.518;2023-11-19T15:08:56;16.10;;;7.03;;